sensor_id;sensor_type;location;lat;lon;timestamp;pressure;altitude;pressure_sealevel;temperature;humidity
60337;BME280;46978;50.288;28.624;2023-11-22T00:00:57;98980.84;;;-3.00;100.00
60337;BME280;46978;50.288;28.624;2023-11-22T00:01:58;98979.20;;;-2.98;100.00
60337;BME280;46978;50.288;28.624;2023-11-22T00:03:00;98983.47;;;-2.97;100.00
60337;BME280;46978;50.288;28.624;2023-11-22T00:04:02;98987.65;;;-2.99;100.00
60337;BME280;46978;50.288;28.624;2023-11-22T00:05:05;98980.88;;;-2.98;100.00
60337;BME280;46978;50.288;28.624;2023-11-22T00:06:07;98986.86;;;-2.96;100.00
60337;BME280;46978;50.288;28.624;2023-11-22T00:07:09;98986.86;;;-2.96;100.00
60337;BME280;46978;50.288;28.624;2023-11-22T00:08:11;98990.32;;;-2.94;100.00
60337;BME280;46978;50.288;28.624;2023-11-22T00:09:12;98984.27;;;-2.98;100.00
60337;BME280;46978;50.288;28.624;2023-11-22T00:10:14;98987.69;;;-2.97;100.00
60337;BME280;46978;50.288;28.624;2023-11-22T00:11:16;98986.05;;;-2.95;100.00
60337;BME280;46978;50.288;28.624;2023-11-22T00:12:17;98992.86;;;-2.94;100.00
60337;BME280;46978;50.288;28.624;2023-11-22T00:13:19;98987.73;;;-2.96;100.00
60337;BME280;46978;50.288;28.624;2023-11-22T00:14:21;98990.98;;;-3.00;100.00
60337;BME280;46978;50.288;28.624;2023-11-22T00:15:22;98996.97;;;-2.98;100.00
60337;BME280;46978;50.288;28.624;2023-11-22T00:16:24;98990.95;;;-3.01;100.00
60337;BME280;46978;50.288;28.624;2023-11-22T00:17:25;98984.92;;;-3.05;100.00
60337;BME280;46978;50.288;28.624;2023-11-22T00:18:27;98992.63;;;-3.02;100.00
60337;BME280;46978;50.288;28.624;2023-11-22T00:19:28;98988.41;;;-3.01;100.00
60337;BME280;46978;50.288;28.624;2023-11-22T00:20:30;98990.98;;;-3.00;100.00
60337;BME280;46978;50.288;28.624;2023-11-22T00:21:32;98986.72;;;-3.01;100.00
60337;BME280;46978;50.288;28.624;2023-11-22T00:22:34;98985.91;;;-3.00;100.00
60337;BME280;46978;50.288;28.624;2023-11-22T00:23:36;98985.95;;;-2.98;100.00
60337;BME280;46978;50.288;28.624;2023-11-22T00:24:38;98990.98;;;-3.00;100.00
60337;BME280;46978;50.288;28.624;2023-11-22T00:25:39;98986.77;;;-2.99;100.00
60337;BME280;46978;50.288;28.624;2023-11-22T00:26:41;98990.85;;;-3.04;100.00
60337;BME280;46978;50.288;28.624;2023-11-22T00:27:43;98992.49;;;-3.07;100.00
60337;BME280;46978;50.288;28.624;2023-11-22T00:28:44;98993.34;;;-3.06;100.00
60337;BME280;46978;50.288;28.624;2023-11-22T00:29:45;98989.13;;;-3.06;100.00
60337;BME280;46978;50.288;28.624;2023-11-22T00:30:47;98988.22;;;-3.08;100.00
60337;BME280;46978;50.288;28.624;2023-11-22T00:31:49;98995.13;;;-3.03;100.00
60337;BME280;46978;50.288;28.624;2023-11-22T00:32:50;98993.44;;;-3.03;100.00
60337;BME280;46978;50.288;28.624;2023-11-22T00:33:52;99003.64;;;-3.01;100.00
60337;BME280;46978;50.288;28.624;2023-11-22T00:34:53;98996.02;;;-3.01;100.00
60337;BME280;46978;50.288;28.624;2023-11-22T00:35:55;99001.09;;;-3.01;100.00
60337;BME280;46978;50.288;28.624;2023-11-22T00:36:57;99000.25;;;-3.02;100.00
60337;BME280;46978;50.288;28.624;2023-11-22T00:37:58;98993.44;;;-3.03;100.00
60337;BME280;46978;50.288;28.624;2023-11-22T00:39:00;98993.39;;;-3.04;100.00
60337;BME280;46978;50.288;28.624;2023-11-22T00:40:03;98987.37;;;-3.08;100.00
60337;BME280;46978;50.288;28.624;2023-11-22T00:41:05;98984.83;;;-3.08;100.00
60337;BME280;46978;50.288;28.624;2023-11-22T00:42:07;98998.38;;;-3.08;100.00
60337;BME280;46978;50.288;28.624;2023-11-22T00:43:09;98994.10;;;-3.09;100.00
60337;BME280;46978;50.288;28.624;2023-11-22T00:44:11;98990.77;;;-3.08;100.00
60337;BME280;46978;50.288;28.624;2023-11-22T00:45:12;98991.66;;;-3.06;100.00
60337;BME280;46978;50.288;28.624;2023-11-22T00:46:15;98989.13;;;-3.06;100.00
60337;BME280;46978;50.288;28.624;2023-11-22T00:47:16;98987.46;;;-3.05;100.00
60337;BME280;46978;50.288;28.624;2023-11-22T00:48:18;98987.46;;;-3.05;100.00
60337;BME280;46978;50.288;28.624;2023-11-22T00:49:19;98990.05;;;-3.03;100.00
60337;BME280;46978;50.288;28.624;2023-11-22T00:50:21;98990.80;;;-3.06;100.00
60337;BME280;46978;50.288;28.624;2023-11-22T00:51:23;98994.23;;;-3.04;100.00
60337;BME280;46978;50.288;28.624;2023-11-22T00:52:25;98987.37;;;-3.08;100.00
60337;BME280;46978;50.288;28.624;2023-11-22T00:53:26;98994.94;;;-3.10;100.00
60337;BME280;46978;50.288;28.624;2023-11-22T00:54:28;98992.35;;;-3.11;100.00
60337;BME280;46978;50.288;28.624;2023-11-22T00:55:29;98995.74;;;-3.11;100.00
60337;BME280;46978;50.288;28.624;2023-11-22T00:56:31;98998.23;;;-3.12;100.00
60337;BME280;46978;50.288;28.624;2023-11-22T00:57:33;98995.70;;;-3.12;100.00
60337;BME280;46978;50.288;28.624;2023-11-22T00:58:34;99002.50;;;-3.11;100.00
60337;BME280;46978;50.288;28.624;2023-11-22T00:59:36;99000.82;;;-3.11;100.00
60337;BME280;46978;50.288;28.624;2023-11-22T01:00:38;99010.16;;;-3.10;100.00
60337;BME280;46978;50.288;28.624;2023-11-22T01:01:40;99007.63;;;-3.10;100.00
60337;BME280;46978;50.288;28.624;2023-11-22T01:02:42;99000.82;;;-3.11;100.00
60337;BME280;46978;50.288;28.624;2023-11-22T01:03:43;99007.58;;;-3.11;100.00
60337;BME280;46978;50.288;28.624;2023-11-22T01:04:45;98994.10;;;-3.09;100.00
60337;BME280;46978;50.288;28.624;2023-11-22T01:05:46;99000.06;;;-3.08;100.00
60337;BME280;46978;50.288;28.624;2023-11-22T01:06:48;99007.58;;;-3.11;100.00
60337;BME280;46978;50.288;28.624;2023-11-22T01:07:50;98997.43;;;-3.11;100.00
60337;BME280;46978;50.288;28.624;2023-11-22T01:08:51;99001.67;;;-3.10;100.00
60337;BME280;46978;50.288;28.624;2023-11-22T01:09:53;99000.02;;;-3.10;100.00
60337;BME280;46978;50.288;28.624;2023-11-22T01:10:55;98999.18;;;-3.09;100.00
60337;BME280;46978;50.288;28.624;2023-11-22T01:11:57;99002.55;;;-3.10;100.00
60337;BME280;46978;50.288;28.624;2023-11-22T01:12:58;99001.63;;;-3.12;100.00
60337;BME280;46978;50.288;28.624;2023-11-22T01:14:00;99009.09;;;-3.16;100.00
60337;BME280;46978;50.288;28.624;2023-11-22T01:15:02;99011.72;;;-3.13;100.00
60337;BME280;46978;50.288;28.624;2023-11-22T01:16:04;99013.46;;;-3.12;100.00
60337;BME280;46978;50.288;28.624;2023-11-22T01:17:06;99007.53;;;-3.13;100.00
60337;BME280;46978;50.288;28.624;2023-11-22T01:18:07;99011.72;;;-3.13;100.00
60337;BME280;46978;50.288;28.624;2023-11-22T01:19:09;99023.52;;;-3.15;100.00
60337;BME280;46978;50.288;28.624;2023-11-22T01:20:11;99025.16;;;-3.17;100.00
60337;BME280;46978;50.288;28.624;2023-11-22T01:21:13;99023.42;;;-3.18;100.00
60337;BME280;46978;50.288;28.624;2023-11-22T01:22:14;99020.03;;;-3.19;100.00
60337;BME280;46978;50.288;28.624;2023-11-22T01:23:16;99034.42;;;-3.18;100.00
60337;BME280;46978;50.288;28.624;2023-11-22T01:24:18;99030.98;;;-3.20;100.00
60337;BME280;46978;50.288;28.624;2023-11-22T01:25:19;99026.77;;;-3.19;100.00
60337;BME280;46978;50.288;28.624;2023-11-22T01:26:21;99026.66;;;-3.22;100.00
60337;BME280;46978;50.288;28.624;2023-11-22T01:27:22;99036.86;;;-3.21;100.00
60337;BME280;46978;50.288;28.624;2023-11-22T01:28:25;99025.91;;;-3.20;100.00
60337;BME280;46978;50.288;28.624;2023-11-22T01:29:26;99030.19;;;-3.19;100.00
60337;BME280;46978;50.288;28.624;2023-11-22T01:30:28;99028.50;;;-3.18;100.00
60337;BME280;46978;50.288;28.624;2023-11-22T01:31:30;99024.13;;;-3.22;100.00
60337;BME280;46978;50.288;28.624;2023-11-22T01:32:31;99021.59;;;-3.22;100.00
60337;BME280;46978;50.288;28.624;2023-11-22T01:33:33;99029.11;;;-3.26;100.00
60337;BME280;46978;50.288;28.624;2023-11-22T01:34:35;99021.55;;;-3.24;100.00
60337;BME280;46978;50.288;28.624;2023-11-22T01:35:36;99027.55;;;-3.22;100.00
60337;BME280;46978;50.288;28.624;2023-11-22T01:36:43;99023.33;;;-3.21;100.00
60337;BME280;46978;50.288;28.624;2023-11-22T01:37:44;99032.72;;;-3.19;100.00
60337;BME280;46978;50.288;28.624;2023-11-22T01:38:46;99023.38;;;-3.20;100.00
60337;BME280;46978;50.288;28.624;2023-11-22T01:39:47;99034.38;;;-3.19;100.00
60337;BME280;46978;50.288;28.624;2023-11-22T01:40:51;99036.02;;;-3.21;100.00
60337;BME280;46978;50.288;28.624;2023-11-22T01:41:53;99026.57;;;-3.26;100.00
60337;BME280;46978;50.288;28.624;2023-11-22T01:42:54;99029.99;;;-3.25;100.00
60337;BME280;46978;50.288;28.624;2023-11-22T01:43:56;99031.69;;;-3.24;100.00
60337;BME280;46978;50.288;28.624;2023-11-22T01:44:57;99035.81;;;-3.28;100.00
60337;BME280;46978;50.288;28.624;2023-11-22T01:45:59;99032.43;;;-3.28;100.00
60337;BME280;46978;50.288;28.624;2023-11-22T01:47:01;99037.41;;;-3.31;100.00
60337;BME280;46978;50.288;28.624;2023-11-22T01:48:03;99045.02;;;-3.31;100.00
60337;BME280;46978;50.288;28.624;2023-11-22T01:49:05;99035.67;;;-3.32;100.00
60337;BME280;46978;50.288;28.624;2023-11-22T01:50:08;99037.41;;;-3.31;100.00
60337;BME280;46978;50.288;28.624;2023-11-22T01:51:10;99035.63;;;-3.34;100.00
60337;BME280;46978;50.288;28.624;2023-11-22T01:52:12;99031.25;;;-3.38;100.00
60337;BME280;46978;50.288;28.624;2023-11-22T01:53:15;99031.25;;;-3.38;100.00
60337;BME280;46978;50.288;28.624;2023-11-22T01:54:18;99036.38;;;-3.36;100.00
60337;BME280;46978;50.288;28.624;2023-11-22T01:55:21;99026.13;;;-3.39;100.00
60337;BME280;46978;50.288;28.624;2023-11-22T01:56:25;99025.33;;;-3.38;100.00
60337;BME280;46978;50.288;28.624;2023-11-22T01:57:27;99029.50;;;-3.40;100.00
60337;BME280;46978;50.288;28.624;2023-11-22T01:58:29;99025.13;;;-3.45;100.00
60337;BME280;46978;50.288;28.624;2023-11-22T01:59:31;99018.37;;;-3.44;100.00
60337;BME280;46978;50.288;28.624;2023-11-22T02:00:36;99017.52;;;-3.45;100.00
60337;BME280;46978;50.288;28.624;2023-11-22T02:01:38;99019.25;;;-3.44;100.00
60337;BME280;46978;50.288;28.624;2023-11-22T02:02:40;99020.76;;;-3.49;100.00
60337;BME280;46978;50.288;28.624;2023-11-22T02:03:45;99020.76;;;-3.49;100.00
60337;BME280;46978;50.288;28.624;2023-11-22T02:04:46;99017.33;;;-3.51;100.00
60337;BME280;46978;50.288;28.624;2023-11-22T02:05:49;99017.37;;;-3.49;100.00
60337;BME280;46978;50.288;28.624;2023-11-22T02:06:51;99014.73;;;-3.52;100.00
60337;BME280;46978;50.288;28.624;2023-11-22T02:07:53;99016.52;;;-3.50;100.00
60337;BME280;46978;50.288;28.624;2023-11-22T02:08:55;99019.06;;;-3.50;100.00
60337;BME280;46978;50.288;28.624;2023-11-22T02:09:58;99018.03;;;-3.55;100.00
60337;BME280;46978;50.288;28.624;2023-11-22T02:11:01;99019.76;;;-3.54;100.00
60337;BME280;46978;50.288;28.624;2023-11-22T02:12:03;99016.38;;;-3.54;100.00
60337;BME280;46978;50.288;28.624;2023-11-22T02:13:05;99023.09;;;-3.55;100.00
60337;BME280;46978;50.288;28.624;2023-11-22T02:14:08;99023.05;;;-3.56;100.00
60337;BME280;46978;50.288;28.624;2023-11-22T02:15:10;99034.17;;;-3.53;100.00
60337;BME280;46978;50.288;28.624;2023-11-22T02:16:11;99034.17;;;-3.53;100.00
60337;BME280;46978;50.288;28.624;2023-11-22T02:17:13;99026.47;;;-3.56;100.00
60337;BME280;46978;50.288;28.624;2023-11-22T02:18:15;99023.05;;;-3.56;100.00
60337;BME280;46978;50.288;28.624;2023-11-22T02:19:17;99025.63;;;-3.55;100.00
60337;BME280;46978;50.288;28.624;2023-11-22T02:20:19;99029.86;;;-3.55;100.00
60337;BME280;46978;50.288;28.624;2023-11-22T02:21:20;99023.14;;;-3.53;100.00
60337;BME280;46978;50.288;28.624;2023-11-22T02:22:22;99036.66;;;-3.54;100.00
60337;BME280;46978;50.288;28.624;2023-11-22T02:23:23;99027.27;;;-3.57;100.00
60337;BME280;46978;50.288;28.624;2023-11-22T02:24:25;99023.88;;;-3.57;100.00
60337;BME280;46978;50.288;28.624;2023-11-22T02:25:27;99017.83;;;-3.61;100.00
60337;BME280;46978;50.288;28.624;2023-11-22T02:26:29;99028.91;;;-3.59;100.00
60337;BME280;46978;50.288;28.624;2023-11-22T02:27:30;99024.63;;;-3.60;100.00
60337;BME280;46978;50.288;28.624;2023-11-22T02:28:32;99026.31;;;-3.61;100.00
60337;BME280;46978;50.288;28.624;2023-11-22T02:29:33;99031.34;;;-3.62;100.00
60337;BME280;46978;50.288;28.624;2023-11-22T02:30:35;99032.98;;;-3.63;100.00
60337;BME280;46978;50.288;28.624;2023-11-22T02:31:38;99041.53;;;-3.61;100.00
60337;BME280;46978;50.288;28.624;2023-11-22T02:32:40;99044.12;;;-3.59;100.00
60337;BME280;46978;50.288;28.624;2023-11-22T02:33:41;99048.31;;;-3.60;100.00
60337;BME280;46978;50.288;28.624;2023-11-22T02:34:43;99046.66;;;-3.59;100.00
60337;BME280;46978;50.288;28.624;2023-11-22T02:35:44;99047.56;;;-3.57;100.00
60337;BME280;46978;50.288;28.624;2023-11-22T02:36:46;99050.89;;;-3.58;100.00
60337;BME280;46978;50.288;28.624;2023-11-22T02:37:48;99060.13;;;-3.60;100.00
60337;BME280;46978;50.288;28.624;2023-11-22T02:38:49;99055.06;;;-3.60;100.00
60337;BME280;46978;50.288;28.624;2023-11-22T02:39:57;99055.97;;;-3.58;100.00
60337;BME280;46978;50.288;28.624;2023-11-22T02:40:59;99053.42;;;-3.58;100.00
60337;BME280;46978;50.288;28.624;2023-11-22T02:42:01;99060.98;;;-3.60;100.00
60337;BME280;46978;50.288;28.624;2023-11-22T02:43:03;99055.86;;;-3.61;100.00
60337;BME280;46978;50.288;28.624;2023-11-22T02:44:04;99050.73;;;-3.63;100.00
60337;BME280;46978;50.288;28.624;2023-11-22T02:45:07;99051.42;;;-3.68;100.00
60337;BME280;46978;50.288;28.624;2023-11-22T02:46:09;99050.59;;;-3.67;100.00
60337;BME280;46978;50.288;28.624;2023-11-22T02:47:10;99048.16;;;-3.64;100.00
60337;BME280;46978;50.288;28.624;2023-11-22T02:48:12;99049.84;;;-3.65;100.00
60337;BME280;46978;50.288;28.624;2023-11-22T02:49:13;99048.98;;;-3.65;100.00
60337;BME280;46978;50.288;28.624;2023-11-22T02:50:18;99044.77;;;-3.65;100.00
60337;BME280;46978;50.288;28.624;2023-11-22T02:51:20;99048.98;;;-3.65;100.00
60337;BME280;46978;50.288;28.624;2023-11-22T02:52:22;99046.30;;;-3.70;100.00
60337;BME280;46978;50.288;28.624;2023-11-22T02:53:23;99046.30;;;-3.70;100.00
60337;BME280;46978;50.288;28.624;2023-11-22T02:54:25;99042.77;;;-3.73;100.00
60337;BME280;46978;50.288;28.624;2023-11-22T02:55:26;99042.77;;;-3.73;100.00
60337;BME280;46978;50.288;28.624;2023-11-22T02:56:28;99035.12;;;-3.75;100.00
60337;BME280;46978;50.288;28.624;2023-11-22T02:57:29;99047.69;;;-3.78;100.00
60337;BME280;46978;50.288;28.624;2023-11-22T02:58:31;99050.22;;;-3.78;100.00
60337;BME280;46978;50.288;28.624;2023-11-22T02:59:32;99049.32;;;-3.80;100.00
60337;BME280;46978;50.288;28.624;2023-11-22T03:00:34;99045.88;;;-3.82;100.00
60337;BME280;46978;50.288;28.624;2023-11-22T03:01:36;99048.41;;;-3.82;100.00
60337;BME280;46978;50.288;28.624;2023-11-22T03:02:37;99046.68;;;-3.83;100.00
60337;BME280;46978;50.288;28.624;2023-11-22T03:03:39;99049.06;;;-3.88;100.00
60337;BME280;46978;50.288;28.624;2023-11-22T03:04:41;99063.36;;;-3.90;100.00
60337;BME280;46978;50.288;28.624;2023-11-22T03:05:42;99054.88;;;-3.90;100.00
60337;BME280;46978;50.288;28.624;2023-11-22T03:06:44;99055.59;;;-3.94;100.00
60337;BME280;46978;50.288;28.624;2023-11-22T03:07:45;99058.19;;;-3.93;100.00
60337;BME280;46978;50.288;28.624;2023-11-22T03:08:47;99056.45;;;-3.94;100.00
60337;BME280;46978;50.288;28.624;2023-11-22T03:09:48;99060.67;;;-3.94;100.00
60337;BME280;46978;50.288;28.624;2023-11-22T03:10:50;99063.25;;;-3.93;100.00
60337;BME280;46978;50.288;28.624;2023-11-22T03:11:53;99068.27;;;-3.94;100.00
60337;BME280;46978;50.288;28.624;2023-11-22T03:12:55;99069.02;;;-3.97;100.00
60337;BME280;46978;50.288;28.624;2023-11-22T03:13:56;99069.90;;;-3.97;100.00
60337;BME280;46978;50.288;28.624;2023-11-22T03:14:57;99069.13;;;-3.94;100.00
60337;BME280;46978;50.288;28.624;2023-11-22T03:15:59;99059.70;;;-3.98;100.00
60337;BME280;46978;50.288;28.624;2023-11-22T03:17:02;99069.84;;;-3.98;100.00
60337;BME280;46978;50.288;28.624;2023-11-22T03:18:04;99071.50;;;-3.99;100.00
60337;BME280;46978;50.288;28.624;2023-11-22T03:19:05;99075.66;;;-4.01;100.00
60337;BME280;46978;50.288;28.624;2023-11-22T03:20:08;99081.52;;;-4.02;100.00
60337;BME280;46978;50.288;28.624;2023-11-22T03:21:10;99079.05;;;-4.00;100.00
60337;BME280;46978;50.288;28.624;2023-11-22T03:22:12;99080.67;;;-4.02;100.00
60337;BME280;46978;50.288;28.624;2023-11-22T03:23:13;99083.09;;;-4.05;100.00
60337;BME280;46978;50.288;28.624;2023-11-22T03:24:15;99077.34;;;-4.01;100.00
60337;BME280;46978;50.288;28.624;2023-11-22T03:25:16;99076.51;;;-4.00;100.00
60337;BME280;46978;50.288;28.624;2023-11-22T03:26:18;99079.09;;;-3.99;100.00
60337;BME280;46978;50.288;28.624;2023-11-22T03:27:20;99075.77;;;-3.98;100.00
60337;BME280;46978;50.288;28.624;2023-11-22T03:28:22;99080.83;;;-3.98;100.00
60337;BME280;46978;50.288;28.624;2023-11-22T03:29:23;99084.22;;;-3.97;100.00
60337;BME280;46978;50.288;28.624;2023-11-22T03:30:25;99081.58;;;-4.00;100.00
60337;BME280;46978;50.288;28.624;2023-11-22T03:31:27;99085.91;;;-3.98;100.00
60337;BME280;46978;50.288;28.624;2023-11-22T03:32:29;99078.88;;;-4.05;100.00
60337;BME280;46978;50.288;28.624;2023-11-22T03:33:30;99081.47;;;-4.03;100.00
60337;BME280;46978;50.288;28.624;2023-11-22T03:34:32;99087.27;;;-4.07;100.00
60337;BME280;46978;50.288;28.624;2023-11-22T03:35:34;99083.89;;;-4.06;100.00
60337;BME280;46978;50.288;28.624;2023-11-22T03:36:35;99083.09;;;-4.05;100.00
60337;BME280;46978;50.288;28.624;2023-11-22T03:37:37;99084.83;;;-4.04;100.00
60337;BME280;46978;50.288;28.624;2023-11-22T03:38:39;99096.67;;;-4.03;100.00
60337;BME280;46978;50.288;28.624;2023-11-22T03:39:41;99089.91;;;-4.04;100.00
60337;BME280;46978;50.288;28.624;2023-11-22T03:40:43;99095.88;;;-4.02;100.00
60337;BME280;46978;50.288;28.624;2023-11-22T03:41:44;99100.95;;;-4.02;100.00
60337;BME280;46978;50.288;28.624;2023-11-22T03:42:46;99110.17;;;-4.04;100.00
60337;BME280;46978;50.288;28.624;2023-11-22T03:43:47;99110.17;;;-4.04;100.00
60337;BME280;46978;50.288;28.624;2023-11-22T03:44:49;99106.59;;;-4.09;100.00
60337;BME280;46978;50.288;28.624;2023-11-22T03:45:50;99109.07;;;-4.11;100.00
60337;BME280;46978;50.288;28.624;2023-11-22T03:46:54;99112.32;;;-4.15;100.00
60337;BME280;46978;50.288;28.624;2023-11-22T03:47:55;99103.09;;;-4.13;100.00
60337;BME280;46978;50.288;28.624;2023-11-22T03:48:57;99112.48;;;-4.10;100.00
60337;BME280;46978;50.288;28.624;2023-11-22T03:49:59;99106.42;;;-4.14;100.00
60337;BME280;46978;50.288;28.624;2023-11-22T03:51:01;99112.32;;;-4.15;100.00
60337;BME280;46978;50.288;28.624;2023-11-22T03:52:03;99118.19;;;-4.16;100.00
60337;BME280;46978;50.288;28.624;2023-11-22T03:53:04;99123.25;;;-4.16;100.00
60337;BME280;46978;50.288;28.624;2023-11-22T03:54:06;99119.81;;;-4.18;100.00
60337;BME280;46978;50.288;28.624;2023-11-22T03:55:08;99126.52;;;-4.19;100.00
60337;BME280;46978;50.288;28.624;2023-11-22T03:56:11;99117.22;;;-4.20;100.00
60337;BME280;46978;50.288;28.624;2023-11-22T03:57:12;99122.91;;;-4.25;100.00
60337;BME280;46978;50.288;28.624;2023-11-22T03:58:14;99116.17;;;-4.25;100.00
60337;BME280;46978;50.288;28.624;2023-11-22T03:59:16;99118.70;;;-4.25;100.00
60337;BME280;46978;50.288;28.624;2023-11-22T04:00:18;99122.06;;;-4.26;100.00
60337;BME280;46978;50.288;28.624;2023-11-22T04:01:20;99121.77;;;-4.34;100.00
60337;BME280;46978;50.288;28.624;2023-11-22T04:02:21;99121.77;;;-4.34;100.00
60337;BME280;46978;50.288;28.624;2023-11-22T04:03:23;99129.43;;;-4.32;100.00
60337;BME280;46978;50.288;28.624;2023-11-22T04:04:24;99133.55;;;-4.34;100.00
60337;BME280;46978;50.288;28.624;2023-11-22T04:05:26;99128.43;;;-4.36;100.00
60337;BME280;46978;50.288;28.624;2023-11-22T04:06:28;99130.11;;;-4.36;100.00
60337;BME280;46978;50.288;28.624;2023-11-22T04:07:29;99133.44;;;-4.37;100.00
60337;BME280;46978;50.288;28.624;2023-11-22T04:08:31;99135.97;;;-4.37;100.00
60337;BME280;46978;50.288;28.624;2023-11-22T04:09:32;99125.84;;;-4.37;100.00
60337;BME280;46978;50.288;28.624;2023-11-22T04:10:34;99128.38;;;-4.37;100.00
60337;BME280;46978;50.288;28.624;2023-11-22T04:11:35;99130.85;;;-4.39;100.00
60337;BME280;46978;50.288;28.624;2023-11-22T04:12:37;99129.09;;;-4.41;100.00
60337;BME280;46978;50.288;28.624;2023-11-22T04:13:39;99129.94;;;-4.41;100.00
60337;BME280;46978;50.288;28.624;2023-11-22T04:15:01;99124.87;;;-4.41;100.00
60337;BME280;46978;50.288;28.624;2023-11-22T04:16:03;99123.97;;;-4.43;100.00
60337;BME280;46978;50.288;28.624;2023-11-22T04:17:05;99130.73;;;-4.42;100.00
60337;BME280;46978;50.288;28.624;2023-11-22T04:18:07;99132.41;;;-4.42;100.00
60337;BME280;46978;50.288;28.624;2023-11-22T04:19:09;99140.86;;;-4.42;100.00
60337;BME280;46978;50.288;28.624;2023-11-22T04:20:12;99144.17;;;-4.44;100.00
60337;BME280;46978;50.288;28.624;2023-11-22T04:21:14;99155.09;;;-4.45;100.00
60337;BME280;46978;50.288;28.624;2023-11-22T04:22:15;99154.23;;;-4.46;100.00
60337;BME280;46978;50.288;28.624;2023-11-22T04:23:17;99155.89;;;-4.46;100.00
60337;BME280;46978;50.288;28.624;2023-11-22T04:24:18;99144.91;;;-4.47;100.00
60337;BME280;46978;50.288;28.624;2023-11-22T04:25:20;99148.34;;;-4.45;100.00
60337;BME280;46978;50.288;28.624;2023-11-22T04:26:21;99147.55;;;-4.44;100.00
60337;BME280;46978;50.288;28.624;2023-11-22T04:27:23;99145.88;;;-4.43;100.00
60337;BME280;46978;50.288;28.624;2023-11-22T04:28:25;99145.02;;;-4.44;100.00
60337;BME280;46978;50.288;28.624;2023-11-22T04:29:26;99144.84;;;-4.48;100.00
60337;BME280;46978;50.288;28.624;2023-11-22T04:30:28;99140.63;;;-4.48;100.00
60337;BME280;46978;50.288;28.624;2023-11-22T04:31:30;99144.78;;;-4.50;100.00
60337;BME280;46978;50.288;28.624;2023-11-22T04:32:32;99141.34;;;-4.52;100.00
60337;BME280;46978;50.288;28.624;2023-11-22T04:33:33;99148.82;;;-4.55;100.00
60337;BME280;46978;50.288;28.624;2023-11-22T04:34:35;99150.59;;;-4.53;100.00
60337;BME280;46978;50.288;28.624;2023-11-22T04:35:36;99147.20;;;-4.53;100.00
60337;BME280;46978;50.288;28.624;2023-11-22T04:36:38;99152.20;;;-4.55;100.00
60337;BME280;46978;50.288;28.624;2023-11-22T04:37:40;99149.61;;;-4.56;100.00
60337;BME280;46978;50.288;28.624;2023-11-22T04:38:41;99152.14;;;-4.56;100.00
60337;BME280;46978;50.288;28.624;2023-11-22T04:39:43;99151.41;;;-4.54;100.00
60337;BME280;46978;50.288;28.624;2023-11-22T04:40:45;99164.98;;;-4.52;100.00
60337;BME280;46978;50.288;28.624;2023-11-22T04:41:47;99152.20;;;-4.55;100.00
60337;BME280;46978;50.288;28.624;2023-11-22T04:42:48;99154.67;;;-4.56;100.00
60337;BME280;46978;50.288;28.624;2023-11-22T04:43:50;99162.33;;;-4.55;100.00
60337;BME280;46978;50.288;28.624;2023-11-22T04:44:51;99169.08;;;-4.55;100.00
60337;BME280;46978;50.288;28.624;2023-11-22T04:45:53;99164.07;;;-4.54;100.00
60337;BME280;46978;50.288;28.624;2023-11-22T04:46:55;99169.81;;;-4.58;100.00
60337;BME280;46978;50.288;28.624;2023-11-22T04:47:56;99161.36;;;-4.58;100.00
60337;BME280;46978;50.288;28.624;2023-11-22T04:48:58;99177.52;;;-4.55;100.00
60337;BME280;46978;50.288;28.624;2023-11-22T04:50:00;99176.67;;;-4.55;100.00
60337;BME280;46978;50.288;28.624;2023-11-22T04:51:02;99174.08;;;-4.57;100.00
60337;BME280;46978;50.288;28.624;2023-11-22T04:52:04;99174.08;;;-4.57;100.00
60337;BME280;46978;50.288;28.624;2023-11-22T04:53:06;99176.55;;;-4.58;100.00
60337;BME280;46978;50.288;28.624;2023-11-22T04:54:07;99169.02;;;-4.57;100.00
60337;BME280;46978;50.288;28.624;2023-11-22T04:55:09;99166.48;;;-4.57;100.00
60337;BME280;46978;50.288;28.624;2023-11-22T04:56:11;99170.66;;;-4.57;100.00
60337;BME280;46978;50.288;28.624;2023-11-22T04:57:13;99172.41;;;-4.56;100.00
60337;BME280;46978;50.288;28.624;2023-11-22T04:58:14;99174.14;;;-4.55;100.00
60337;BME280;46978;50.288;28.624;2023-11-22T04:59:16;99174.94;;;-4.56;100.00
60337;BME280;46978;50.288;28.624;2023-11-22T05:00:18;99173.25;;;-4.56;100.00
60337;BME280;46978;50.288;28.624;2023-11-22T05:01:20;99173.13;;;-4.59;100.00
60337;BME280;46978;50.288;28.624;2023-11-22T05:02:22;99178.20;;;-4.59;100.00
60337;BME280;46978;50.288;28.624;2023-11-22T05:03:23;99177.41;;;-4.58;100.00
60337;BME280;46978;50.288;28.624;2023-11-22T05:04:25;99182.47;;;-4.58;100.00
60337;BME280;46978;50.288;28.624;2023-11-22T05:05:26;99192.59;;;-4.58;100.00
60337;BME280;46978;50.288;28.624;2023-11-22T05:06:28;99193.45;;;-4.57;100.00
60337;BME280;46978;50.288;28.624;2023-11-22T05:07:30;99197.42;;;-4.64;100.00
60337;BME280;46978;50.288;28.624;2023-11-22T05:08:31;99193.20;;;-4.63;100.00
60337;BME280;46978;50.288;28.624;2023-11-22T05:09:33;99187.35;;;-4.62;100.00
60337;BME280;46978;50.288;28.624;2023-11-22T05:10:34;99183.97;;;-4.63;100.00
60337;BME280;46978;50.288;28.624;2023-11-22T05:11:36;99179.70;;;-4.64;100.00
60337;BME280;46978;50.288;28.624;2023-11-22T05:12:38;99166.80;;;-4.70;100.00
60337;BME280;46978;50.288;28.624;2023-11-22T05:13:39;99185.67;;;-4.62;100.00
60337;BME280;46978;50.288;28.624;2023-11-22T05:14:41;99189.77;;;-4.65;100.00
60337;BME280;46978;50.288;28.624;2023-11-22T05:15:43;99188.84;;;-4.67;100.00
60337;BME280;46978;50.288;28.624;2023-11-22T05:16:44;99197.36;;;-4.65;100.00
60337;BME280;46978;50.288;28.624;2023-11-22T05:17:46;99195.67;;;-4.65;100.00
60337;BME280;46978;50.288;28.624;2023-11-22T05:18:47;99202.36;;;-4.67;100.00
60337;BME280;46978;50.288;28.624;2023-11-22T05:19:49;99198.09;;;-4.68;100.00